三亜 の空港の天気 - METARとTAF

三亜鳳凰国際空港 ( ZJSY / SYX ) - 中国 海南省三亜市
飛行場実況気象(Metar)
観測時間02/06 04:00 CST (02/05 20:00 UTC)
風向・風速東 3m/s
視程10km以上
天気現象
なし
気温22℃
湿度88%
気圧1011hPa
METARZJSY 052000Z 09003MPS CAVOK 22/20 Q1011 NOSIG
過去の天気等 Google飛行場航空写真 Wunderground天気予報

過去48時間のMETAR

飛行場予報(TAF)
発表時間: 2/05 23:03 CST (2/05 15:03 UTC)
予報対象時間: 6日2時 CST ~ 7日2時 CST
風向・風速東南東 3m/s
視程10km以上
少しの雲 雲底高度 610m
TAF ZJSY 051503Z 0518/0618 12003MPS 9999 FEW020 TX28/0606Z TN22/0521Z